Tiff City, MO (64868)

07:18:CDT den 28. juli 2014 (GMT -0500)
Grove Municipal (KGMJ) H.o.h 833 ft | 36.60 °N, 94.74 °W | Change Station

Current weather conditions updated 23 minutes ago

Clear
Klart
64 °F
Feels Like 64 °F
N
0
Vind Variabel Vind from Nord

Today is forecast to be Cooler than yesterday.

I dag
High -- | Low -- °F
--% Chance of Precip.
I går
High -- | Low -- °F
Precip. -- tommer
6:21 AM 8:28 PM
Nymåne, 2% visible
Lufttrykk 30.18 tommer
Sikt 10.0 eng. mil
Skyet Klart
Duggpunkt 61 °F
Fuktighet 88%
Regn 0.00 tommer
Snødybde Not available.
UV 0 av 12
Pollen 5.40 av 12
Luftkvalitet Not available.
Flu Activity Not available.
METAR KGMJ 281155Z AUTO 00000KT 10SM CLR 18/16 A3018 RMK AO2

More Conditions Fewer Conditions

Lufttrykk 30.18 tommer
Sikt 10.0 eng. mil
Skyet Klart
Duggpunkt 61 °F
Fuktighet 88%
Regn 0.00 tommer
Snødybde Not available.
UV 0 av 12
Pollen 5.40 av 12
Luftkvalitet Not available.
Flu Activity Not available.
METAR KGMJ 281155Z AUTO 00000KT 10SM CLR 18/16 A3018 RMK AO2

More Conditions Fewer Conditions

10-Day Weather Forecast

Almanac

Astronomi

Jul. 28, 2014 Oppgang Nedgang
Virkelig tid 06:21 CDT 20:28 CDT
Tussmørke 05:52 CDT 20:56 CDT
Nautisk skumring 05:16 CDT 21:32 CDT
Astronomisk skumring 04:38 CDT 22:10 CDT
Månen 07:59 CDT 21:15 CDT
Lengde av synlig lys 15h 04m
Dagens lengde
14h 06m
Tomorrow will be 1m 38s shorter.
Nymåne, 2% of the Moon is Illuminated
I dag
Nymåne
Aug 3
Første kvarter
Aug 10
Fullmåne
Aug 17
Siste kvarter
Aug 25
Ny

Dagens maks og min

State Highs State Lows

Community

WunderPhotos

Upload Photos

1,738,307 photos uploaded!

Nearby

Snødybde

Stasjon Depth Høyde over havet
No new snow has been reported.

Earthquake Activity

By Distance Mag. Time & Date
No recent earthquake activity has been reported nearby.
Minimum magnitude displayed is 2.5.

Coastal Water Temperatures

Sted Temperatur
Ingen stasjoner raporterer

Nearby Weather Stations

Stasjonens lokasjon Temp. Varmeindeks Duggpunkt Fuktighet Vind Precip. H.o.h Oppdatert Type
FryeComp -2 Mi/S SWC, Gravette, AR 63.8 °F - 32 °F 30% NNØ  i  1.0 mph 0.00 tommer / hr 1138 ft 7:18 AM CDT Rapid Fire
NonFedAWOS NEOSHO AIRPORT , Neosho, MO 61 °F - 59 °F 94% Nord  i  - 0.00 tommer / hr 1254 ft 6:15 AM CDT MADIS
Gravette Westside, Gravette, AR 77.4 °F 79 °F 63 °F 62% NNØ  i  0.0 mph 0.00 tommer / hr 1220 ft 7:18 AM CDT Rapid Fire
Loch Lomond, Bella Vista, AR 61.0 °F - 58 °F 90% SSØ  i  0.0 mph 0.00 tommer / hr 1243 ft 7:00 AM CDT Normal
Southland View, Miami, OK 62.2 °F - 61 °F 96% SV  i  0.0 mph 0.00 tommer / hr 800 ft 7:18 AM CDT Rapid Fire
City of Miami, OK EM, Miami, OK 65.6 °F - 61 °F 86% NNØ  i  0.0 mph 0.00 tommer / hr 808 ft 7:15 AM CDT Normal
Sparky Electric, Miami, OK 67.5 °F - 63 °F 85% NNV  i  0.0 mph 0.00 tommer / hr 797 ft 7:18 AM CDT Rapid Fire
Cherry Weather Station, Miami, OK 62.1 °F - 62 °F 98% Nord  i  0.0 mph 0.00 tommer / hr 808 ft 7:18 AM CDT Rapid Fire

Show More Stations Show Fewer Stations